createdAt,value
2022-09-01T00:00:49.397Z,2.35
2022-09-01T00:03:18.718Z,3.05
2022-09-01T00:05:51.125Z,2.45
2022-09-01T00:08:19.470Z,2.10
2022-09-01T00:10:47.749Z,2.17
2022-09-01T00:13:16.437Z,2.38
2022-09-01T00:15:46.056Z,2.28
2022-09-01T00:18:15.889Z,2.53
2022-09-01T00:20:44.111Z,2.70
2022-09-01T00:23:12.448Z,2.17
2022-09-01T00:25:40.749Z,1.98
2022-09-01T00:28:08.827Z,2.47
2022-09-01T00:30:37.016Z,2.20
2022-09-01T00:33:06.672Z,1.95
2022-09-01T00:35:37.431Z,2.88
2022-09-01T00:38:05.767Z,2.97
2022-09-01T00:40:34.513Z,2.70
2022-09-01T00:43:02.956Z,2.28
2022-09-01T00:45:31.301Z,3.10
2022-09-01T00:47:59.416Z,2.30
2022-09-01T00:50:29.085Z,2.03
2022-09-01T00:52:57.544Z,2.60
2022-09-01T00:55:30.482Z,2.25
2022-09-01T00:58:02.726Z,2.63
2022-09-01T01:00:33.173Z,2.47
2022-09-01T01:03:01.465Z,2.35
2022-09-01T01:05:35.351Z,2.42
2022-09-01T01:08:05.646Z,2.97
2022-09-01T01:10:37.177Z,2.03
2022-09-01T01:13:08.970Z,2.30
2022-09-01T01:15:38.150Z,2.35
2022-09-01T01:18:06.487Z,2.10
2022-09-01T01:20:58.818Z,2.55
2022-09-01T01:23:37.179Z,2.47
2022-09-01T01:26:09.408Z,2.72
2022-09-01T01:28:40.495Z,2.40
2022-09-01T01:31:12.828Z,2.70
2022-09-01T01:33:44.597Z,2.90
2022-09-01T01:36:16.581Z,3.17
2022-09-01T01:38:47.824Z,2.70
2022-09-01T01:41:19.864Z,3.13
2022-09-01T01:43:51.180Z,3.50
2022-09-01T01:46:20.637Z,2.85
2022-09-01T01:48:50.310Z,2.70
2022-09-01T01:51:21.369Z,2.60
2022-09-01T01:53:52.866Z,3.67
2022-09-01T01:58:56.366Z,2.95
2022-09-01T02:01:26.011Z,3.00
2022-09-01T02:03:54.892Z,3.63
2022-09-01T02:06:25.653Z,3.25
2022-09-01T02:08:58.302Z,2.65
2022-09-01T02:11:28.197Z,3.20
2022-09-01T02:13:57.778Z,3.33
2022-09-01T02:16:28.384Z,3.13
2022-09-01T02:18:57.275Z,2.97
2022-09-01T02:21:27.216Z,3.65
2022-09-01T02:24:00.429Z,4.03
2022-09-01T02:26:32.662Z,3.35
2022-09-01T02:29:04.795Z,2.85
2022-09-01T02:31:35.809Z,2.75
2022-09-01T02:34:04.965Z,2.90
2022-09-01T02:36:35.249Z,2.83
2022-09-01T02:39:03.592Z,3.05
2022-09-01T02:41:34.703Z,2.90
2022-09-01T02:44:04.122Z,3.92
2022-09-01T02:46:32.353Z,3.13
2022-09-01T02:49:00.835Z,3.10
2022-09-01T02:51:29.288Z,3.58
2022-09-01T02:53:57.929Z,3.03
2022-09-01T02:56:27.698Z,3.30
2022-09-01T02:58:57.753Z,3.72
2022-09-01T03:01:30.271Z,3.45
2022-09-01T03:04:00.779Z,4.05
2022-09-01T03:06:34.418Z,3.17
2022-09-01T03:09:04.073Z,2.92
2022-09-01T03:11:35.042Z,3.53
2022-09-01T03:14:05.455Z,3.65
2022-09-01T03:16:33.801Z,3.00
2022-09-01T03:19:04.042Z,3.58
2022-09-01T03:21:32.895Z,3.17
2022-09-01T03:24:03.776Z,2.97
2022-09-01T03:26:32.902Z,3.63
2022-09-01T03:29:01.960Z,3.40
2022-09-01T03:31:32.119Z,3.50
2022-09-01T03:34:01.364Z,3.85
2022-09-01T03:36:31.063Z,2.90
2022-09-01T03:38:59.199Z,3.28
2022-09-01T03:41:30.958Z,3.55
2022-09-01T03:44:00.656Z,2.97
2022-09-01T03:46:36.313Z,3.45
2022-09-01T03:49:07.472Z,3.10
2022-09-01T03:51:38.189Z,3.53
2022-09-01T03:54:06.678Z,4.10
2022-09-01T03:56:34.803Z,3.53
2022-09-01T03:59:03.104Z,4.35
2022-09-01T04:01:43.870Z,3.60
2022-09-01T04:04:14.103Z,3.70
2022-09-01T04:06:42.714Z,3.78
2022-09-01T04:09:11.021Z,3.75
2022-09-01T04:11:45.857Z,3.78
2022-09-01T04:14:14.925Z,3.55
2022-09-01T04:17:02.857Z,3.60
2022-09-01T04:19:36.644Z,4.50
2022-09-01T04:22:05.471Z,4.03
2022-09-01T04:24:34.946Z,4.30
2022-09-01T04:27:04.762Z,3.20
2022-09-01T04:29:33.520Z,3.72
2022-09-01T04:32:06.325Z,2.72
2022-09-01T04:34:38.763Z,3.72
2022-09-01T04:37:13.213Z,3.13
2022-09-01T04:39:52.619Z,3.58
2022-09-01T04:42:24.217Z,3.30
2022-09-01T04:44:53.742Z,3.55
2022-09-01T04:47:35.269Z,3.03
2022-09-01T04:50:14.363Z,4.15
2022-09-01T04:52:43.196Z,3.53
2022-09-01T04:55:17.977Z,3.65
2022-09-01T04:57:49.526Z,3.78
2022-09-01T05:00:23.622Z,4.70
2022-09-01T05:02:55.578Z,4.45
2022-09-01T05:05:24.888Z,3.80
2022-09-01T05:07:55.590Z,3.90
2022-09-01T05:10:30.232Z,3.65
2022-09-01T05:12:58.542Z,3.65
2022-09-01T05:15:26.740Z,5.57
2022-09-01T05:18:02.449Z,3.97
2022-09-01T05:20:32.112Z,4.70
2022-09-01T05:23:00.640Z,4.55
2022-09-01T05:25:29.241Z,4.78
2022-09-01T05:27:57.956Z,4.20
2022-09-01T05:30:28.727Z,3.70
2022-09-01T05:32:58.379Z,4.18
2022-09-01T05:35:32.922Z,4.30
2022-09-01T05:38:01.382Z,4.97
2022-09-01T05:40:29.752Z,4.22
2022-09-01T05:42:59.449Z,4.70
2022-09-01T05:45:28.036Z,4.35
2022-09-01T05:47:56.365Z,4.78
2022-09-01T05:50:28.326Z,4.82
2022-09-01T05:52:56.507Z,4.25
2022-09-01T05:55:27.112Z,4.30
2022-09-01T05:57:57.354Z,4.30
2022-09-01T06:00:25.561Z,5.40
2022-09-01T06:02:54.162Z,4.03
2022-09-01T06:05:22.334Z,4.65
2022-09-01T06:07:52.129Z,4.30
2022-09-01T06:10:20.533Z,4.93
2022-09-01T06:12:50.552Z,4.43
2022-09-01T06:15:22.967Z,3.95
2022-09-01T06:17:51.057Z,6.10
2022-09-01T06:20:19.490Z,4.32
2022-09-01T06:22:47.823Z,4.50
2022-09-01T06:25:18.808Z,4.15
2022-09-01T06:27:48.270Z,3.80
2022-09-01T06:30:24.072Z,4.60
2022-09-01T06:32:53.243Z,5.25
2022-09-01T06:35:21.997Z,3.72
2022-09-01T06:37:50.539Z,3.17
2022-09-01T06:40:20.256Z,2.92
2022-09-01T06:42:51.085Z,3.63
2022-09-01T06:45:21.782Z,4.68
2022-09-01T06:47:57.770Z,3.40
2022-09-01T06:53:36.099Z,2.95
2022-09-01T06:56:06.071Z,3.47
2022-09-01T06:58:35.043Z,2.83
2022-09-01T07:01:08.393Z,2.83
2022-09-01T07:03:39.409Z,3.20
2022-09-01T07:06:58.681Z,3.65
2022-09-01T07:16:32.911Z,5.03
2022-09-01T07:17:29.785Z,4.43
2022-09-01T07:20:23.333Z,3.50
2022-09-01T07:28:39.995Z,4.30
2022-09-01T07:39:55.495Z,3.58
2022-09-01T07:45:30.865Z,3.03
2022-09-01T07:48:03.277Z,3.10
2022-09-01T07:51:07.505Z,2.80
2022-09-01T07:53:23.565Z,2.78
2022-09-01T07:55:53.976Z,2.83
2022-09-01T07:58:23.892Z,4.32
2022-09-01T08:00:54.622Z,4.68
2022-09-01T08:03:24.863Z,3.80
2022-09-01T08:05:57.969Z,4.00
2022-09-01T08:08:29.323Z,4.45
2022-09-01T08:11:05.463Z,3.97
2022-09-01T08:13:37.341Z,3.67
2022-09-01T08:16:18.966Z,3.22
2022-09-01T08:18:49.319Z,3.33
2022-09-01T08:21:18.863Z,3.40
2022-09-01T08:23:48.019Z,3.17
2022-09-01T08:26:19.000Z,3.30
2022-09-01T08:28:54.542Z,2.80
2022-09-01T08:31:30.697Z,3.35
2022-09-01T08:34:00.192Z,3.38
2022-09-01T08:36:28.672Z,3.60
2022-09-01T08:38:56.741Z,3.28
2022-09-01T08:41:36.482Z,2.80
2022-09-01T08:44:12.933Z,3.35
2022-09-01T08:46:44.524Z,3.10
2022-09-01T08:49:25.384Z,2.78
2022-09-01T08:52:00.906Z,2.90
2022-09-01T08:54:36.712Z,3.00
2022-09-01T08:57:10.316Z,3.28
2022-09-01T08:59:39.221Z,3.35
2022-09-01T09:02:24.615Z,4.45
2022-09-01T09:05:15.345Z,2.58
2022-09-01T09:08:09.365Z,4.22
2022-09-01T09:10:49.752Z,3.10
2022-09-01T09:13:25.831Z,4.22
2022-09-01T09:16:07.746Z,3.03
2022-09-01T09:18:59.562Z,2.85
2022-09-01T09:21:33.823Z,2.97
2022-09-01T09:24:08.384Z,2.63
2022-09-01T09:26:44.663Z,3.35
2022-09-01T09:29:13.070Z,3.38
2022-09-01T09:31:49.939Z,2.30
2022-09-01T09:34:32.819Z,2.20
2022-09-01T09:37:17.023Z,2.10
2022-09-01T09:39:45.418Z,1.83
2022-09-01T09:42:16.169Z,2.50
2022-09-01T09:44:46.845Z,1.90
2022-09-01T09:47:43.949Z,2.53
2022-09-01T09:50:21.741Z,2.28
2022-09-01T09:52:51.142Z,2.65
2022-09-01T09:55:26.502Z,2.47
2022-09-01T09:58:00.321Z,1.95
2022-09-01T10:00:30.544Z,2.85
2022-09-01T10:03:04.678Z,2.33
2022-09-01T10:05:43.224Z,3.10
2022-09-01T10:08:14.912Z,2.50
2022-09-01T10:10:45.952Z,3.60
2022-09-01T10:13:27.585Z,2.60
2022-09-01T10:15:58.468Z,2.40
2022-09-01T10:18:33.198Z,2.75
2022-09-01T10:21:09.733Z,2.53
2022-09-01T10:23:41.416Z,2.20
2022-09-01T10:26:14.998Z,2.42
2022-09-01T10:28:50.951Z,2.58
2022-09-01T10:31:20.272Z,2.83
2022-09-01T10:33:49.711Z,3.05
2022-09-01T10:36:24.491Z,2.60
2022-09-01T10:38:58.700Z,2.90
2022-09-01T10:42:00.155Z,2.05
2022-09-01T10:44:34.037Z,2.45
2022-09-01T10:47:06.323Z,2.15
2022-09-01T10:49:59.869Z,2.28
2022-09-01T10:53:00.860Z,2.28
2022-09-01T10:55:35.273Z,3.63
2022-09-01T11:05:14.603Z,2.20
2022-09-01T11:08:01.556Z,2.17
2022-09-01T11:10:56.766Z,2.42
2022-09-01T11:13:37.488Z,2.20
2022-09-01T11:19:38.284Z,2.42
2022-09-01T11:25:00.131Z,5.75
2022-09-01T11:28:19.451Z,2.83
2022-09-01T11:30:55.275Z,2.17
2022-09-01T11:33:40.205Z,3.35
2022-09-01T11:36:16.043Z,1.75
2022-09-01T11:38:50.531Z,2.33
2022-09-01T11:41:24.588Z,2.15
2022-09-01T11:43:58.117Z,2.60
2022-09-01T11:46:32.723Z,2.80
2022-09-01T11:49:07.668Z,2.20
2022-09-01T11:51:47.134Z,3.00
2022-09-01T11:54:16.560Z,2.83
2022-09-01T11:56:44.628Z,2.60
2022-09-01T11:59:14.224Z,3.17
2022-09-01T12:01:42.708Z,2.42
2022-09-01T12:04:23.615Z,2.15
2022-09-01T12:06:58.220Z,2.10
2022-09-01T12:09:37.756Z,2.00
2022-09-01T12:12:07.658Z,1.88
2022-09-01T12:15:02.117Z,1.83
2022-09-01T12:17:25.542Z,2.05
2022-09-01T12:19:54.461Z,2.40
2022-09-01T12:22:24.321Z,2.20
2022-09-01T12:24:54.882Z,2.37
2022-09-01T12:27:24.337Z,2.15
2022-09-01T12:29:54.052Z,2.20
2022-09-01T12:32:22.747Z,2.10
2022-09-01T12:35:09.215Z,2.15
2022-09-01T12:37:39.546Z,2.00
2022-09-01T12:40:23.921Z,1.98
2022-09-01T12:42:53.327Z,2.17
2022-09-01T12:45:42.553Z,2.15
2022-09-01T12:48:26.012Z,2.58
2022-09-01T12:50:56.231Z,3.25
2022-09-01T12:53:30.587Z,2.63
2022-09-01T12:56:21.199Z,2.95
2022-09-01T12:58:54.811Z,3.25
2022-09-01T13:01:35.142Z,2.95
2022-09-01T13:04:26.353Z,2.63
2022-09-01T13:06:57.613Z,2.00
2022-09-01T13:12:09.186Z,2.45
2022-09-01T13:14:37.317Z,2.03
2022-09-01T13:17:13.804Z,2.55
2022-09-01T13:19:42.920Z,1.90
2022-09-01T13:22:11.428Z,2.65
2022-09-01T13:24:40.046Z,2.17
2022-09-01T13:27:23.972Z,2.30
2022-09-01T13:29:52.620Z,3.60
2022-09-01T13:32:24.289Z,2.20
2022-09-01T13:34:54.375Z,2.45
2022-09-01T13:37:23.045Z,2.13
2022-09-01T13:39:51.545Z,2.17
2022-09-01T13:42:20.117Z,2.20
2022-09-01T13:44:52.508Z,2.22
2022-09-01T13:47:29.207Z,3.20
2022-09-01T13:50:07.734Z,1.85
2022-09-01T13:52:37.442Z,2.22
2022-09-01T13:55:06.476Z,2.40
2022-09-01T13:57:36.529Z,2.10
2022-09-01T14:00:07.063Z,2.50
2022-09-01T14:02:36.872Z,2.40
2022-09-01T14:05:05.937Z,2.00
2022-09-01T14:07:34.195Z,3.58
2022-09-01T14:10:02.801Z,2.42
2022-09-01T14:12:32.113Z,2.28
2022-09-01T14:15:18.406Z,2.25
2022-09-01T14:17:51.837Z,2.33
2022-09-01T14:20:22.779Z,2.13
2022-09-01T14:22:51.738Z,2.15
2022-09-01T14:25:21.619Z,2.35
2022-09-01T14:27:50.245Z,3.08
2022-09-01T14:30:25.689Z,2.03
2022-09-01T14:32:59.647Z,2.10
2022-09-01T14:35:28.772Z,2.10
2022-09-01T14:37:58.051Z,1.90
2022-09-01T14:40:29.050Z,1.95
2022-09-01T14:42:57.412Z,2.08
2022-09-01T14:45:28.699Z,1.90
2022-09-01T14:48:01.644Z,2.40
2022-09-01T14:50:34.146Z,2.03
2022-09-01T14:53:04.098Z,1.65
2022-09-01T14:55:33.084Z,2.13
2022-09-01T14:58:01.610Z,2.47
2022-09-01T15:00:31.782Z,2.00
2022-09-01T15:03:01.350Z,1.70
2022-09-01T15:05:29.643Z,2.67
2022-09-01T15:08:07.724Z,1.85
2022-09-01T15:10:36.645Z,2.03
2022-09-01T15:13:05.781Z,2.13
2022-09-01T15:15:34.172Z,2.00
2022-09-01T15:18:04.023Z,2.00
2022-09-01T15:20:47.530Z,1.90
2022-09-01T15:23:18.443Z,1.88
2022-09-01T15:25:47.175Z,1.70
2022-09-01T15:28:16.021Z,2.08
2022-09-01T15:30:46.381Z,1.88
2022-09-01T15:33:16.849Z,1.60
2022-09-01T15:35:45.854Z,1.83
2022-09-01T15:38:17.540Z,1.63
2022-09-01T15:40:57.137Z,2.08
2022-09-01T15:43:26.379Z,2.00
2022-09-01T15:45:54.623Z,1.80
2022-09-01T15:48:24.096Z,1.98
2022-09-01T15:50:52.402Z,1.67
2022-09-01T15:53:20.571Z,2.10
2022-09-01T15:55:50.355Z,1.85
2022-09-01T15:58:20.973Z,2.08
2022-09-01T16:00:49.199Z,2.00
2022-09-01T16:03:17.621Z,2.13
2022-09-01T16:05:47.361Z,2.10
2022-09-01T16:08:15.534Z,1.80
2022-09-01T16:10:43.829Z,2.58
2022-09-01T16:13:13.249Z,2.60
2022-09-01T16:15:47.307Z,2.85
2022-09-01T16:18:24.996Z,2.15
2022-09-01T16:21:02.647Z,1.95
2022-09-01T16:23:39.839Z,2.20
2022-09-01T16:26:08.238Z,1.50
2022-09-01T16:28:38.155Z,2.78
2022-09-01T16:31:12.291Z,1.85
2022-09-01T16:33:40.903Z,1.52
2022-09-01T16:36:25.816Z,2.28
2022-09-01T16:39:00.959Z,1.60
2022-09-01T16:41:44.154Z,1.25
2022-09-01T16:44:25.287Z,1.40
2022-09-01T16:47:02.183Z,1.35
2022-09-01T16:49:38.274Z,1.77
2022-09-01T16:52:14.453Z,2.30
2022-09-01T16:54:57.809Z,1.98
2022-09-01T16:57:35.595Z,2.22
2022-09-01T17:00:09.373Z,1.70
2022-09-01T17:02:49.738Z,1.35
2022-09-01T17:05:25.777Z,2.05
2022-09-01T17:08:07.089Z,1.83
2022-09-01T17:10:42.383Z,1.50
2022-09-01T17:13:20.342Z,1.38
2022-09-01T17:15:56.404Z,2.15
2022-09-01T17:18:33.561Z,2.25
2022-09-01T17:21:11.134Z,2.85
2022-09-01T17:23:48.912Z,1.80
2022-09-01T17:26:23.013Z,2.47
2022-09-01T17:28:56.516Z,2.30
2022-09-01T17:31:41.882Z,2.72
2022-09-01T17:34:24.426Z,2.00
2022-09-01T17:37:02.085Z,1.92
2022-09-01T17:39:41.125Z,1.67
2022-09-01T17:42:18.455Z,2.00
2022-09-01T17:44:56.542Z,1.88
2022-09-01T17:47:37.515Z,1.70
2022-09-01T17:50:15.193Z,1.48
2022-09-01T17:52:53.206Z,2.33
2022-09-01T17:55:38.293Z,1.65
2022-09-01T17:58:15.311Z,1.63
2022-09-01T18:00:49.989Z,1.70
2022-09-01T18:03:34.527Z,1.90
2022-09-01T18:06:08.593Z,2.00
2022-09-01T18:08:42.164Z,1.52
2022-09-01T18:11:17.092Z,1.50
2022-09-01T18:13:53.738Z,1.42
2022-09-01T18:16:26.423Z,1.40
2022-09-01T18:18:55.697Z,1.60
2022-09-01T18:21:30.844Z,2.05
2022-09-01T18:24:12.861Z,1.65
2022-09-01T18:26:46.215Z,1.33
2022-09-01T18:29:14.364Z,1.88
2022-09-01T18:32:12.717Z,1.77
2022-09-01T18:34:58.198Z,1.70
2022-09-01T18:37:38.689Z,1.30
2022-09-01T18:40:16.755Z,2.10
2022-09-01T18:42:54.487Z,1.63
2022-09-01T18:45:33.352Z,1.60
2022-09-01T18:48:10.342Z,1.60
2022-09-01T18:50:48.408Z,3.30
2022-09-01T18:53:30.068Z,1.90
2022-09-01T18:56:03.922Z,2.13
2022-09-01T18:58:48.916Z,1.60
2022-09-01T19:01:21.942Z,1.55
2022-09-01T19:03:57.119Z,1.60
2022-09-01T19:06:35.957Z,1.35
2022-09-01T19:09:11.608Z,1.35
2022-09-01T19:11:50.425Z,2.10
2022-09-01T19:14:30.145Z,1.50
2022-09-01T19:17:15.128Z,1.88
2022-09-01T19:19:47.650Z,1.75
2022-09-01T19:22:20.185Z,1.75
2022-09-01T19:24:52.332Z,1.30
2022-09-01T19:27:25.579Z,1.92
2022-09-01T19:29:59.075Z,1.80
2022-09-01T19:32:29.968Z,3.67
2022-09-01T19:35:04.188Z,2.10
2022-09-01T19:37:32.425Z,1.70
2022-09-01T19:40:01.148Z,1.55
2022-09-01T19:42:35.307Z,1.90
2022-09-01T19:45:12.706Z,1.88
2022-09-01T19:47:47.918Z,1.60
2022-09-01T19:50:21.367Z,1.67
2022-09-01T19:52:56.989Z,1.60
2022-09-01T19:55:31.496Z,2.38
2022-09-01T19:58:05.530Z,2.20
2022-09-01T20:00:51.320Z,1.83
2022-09-01T20:03:23.969Z,1.58
2022-09-01T20:05:58.386Z,2.03
2022-09-01T20:08:34.844Z,1.67
2022-09-01T20:11:10.243Z,1.63
2022-09-01T20:13:53.130Z,1.25
2022-09-01T20:16:31.629Z,2.20
2022-09-01T20:19:03.396Z,1.63
2022-09-01T20:21:32.337Z,2.03
2022-09-01T20:24:04.947Z,2.20
2022-09-01T20:26:40.270Z,2.00
2022-09-01T20:29:14.292Z,2.45
2022-09-01T20:31:48.994Z,3.00
2022-09-01T20:34:22.644Z,2.10
2022-09-01T20:36:54.728Z,1.70
2022-09-01T20:39:51.646Z,2.53
2022-09-01T20:42:24.541Z,1.70
2022-09-01T20:44:57.531Z,1.50
2022-09-01T20:47:29.865Z,1.83
2022-09-01T20:50:00.342Z,2.03
2022-09-01T20:52:37.956Z,2.10
2022-09-01T20:55:14.604Z,2.00
2022-09-01T20:57:52.222Z,2.15
2022-09-01T21:00:26.107Z,1.50
2022-09-01T21:03:04.009Z,1.85
2022-09-01T21:05:46.929Z,2.95
2022-09-01T21:08:28.479Z,2.13
2022-09-01T21:13:43.666Z,1.77
2022-09-01T21:16:19.604Z,1.98
2022-09-01T21:19:02.343Z,1.67
2022-09-01T21:21:42.058Z,1.60
2022-09-01T21:24:10.342Z,1.95
2022-09-01T21:26:40.291Z,1.55
2022-09-01T21:29:24.054Z,2.08
2022-09-01T21:31:52.223Z,1.75
2022-09-01T21:34:21.845Z,2.08
2022-09-01T21:36:49.987Z,2.10
2022-09-01T21:39:21.733Z,3.63
2022-09-01T21:41:50.489Z,1.60
2022-09-01T21:44:18.812Z,2.28
2022-09-01T21:46:47.115Z,1.58
2022-09-01T21:49:15.608Z,1.95
2022-09-01T21:51:45.224Z,1.80
2022-09-01T21:54:13.590Z,1.90
2022-09-01T21:56:41.749Z,1.70
2022-09-01T21:59:13.157Z,2.10
2022-09-01T22:01:41.276Z,1.75
2022-09-01T22:04:09.726Z,1.65
2022-09-01T22:06:40.026Z,1.55
2022-09-01T22:09:20.645Z,1.50
2022-09-01T22:11:51.000Z,1.95
2022-09-01T22:14:20.695Z,1.70
2022-09-01T22:16:50.475Z,1.77
2022-09-01T22:19:20.204Z,1.70
2022-09-01T22:21:48.699Z,1.40
2022-09-01T22:24:19.365Z,2.13
2022-09-01T22:26:48.926Z,1.67
2022-09-01T22:29:18.422Z,2.00
2022-09-01T22:31:46.836Z,1.38
2022-09-01T22:34:15.617Z,1.90
2022-09-01T22:36:47.062Z,1.73
2022-09-01T22:41:45.237Z,2.35
2022-09-01T22:44:13.473Z,1.90
2022-09-01T22:46:41.976Z,1.80
2022-09-01T22:49:10.507Z,1.90
2022-09-01T22:51:40.224Z,2.17
2022-09-01T22:54:09.938Z,1.90
2022-09-01T22:56:40.677Z,1.88
2022-09-01T22:59:13.300Z,1.88
2022-09-01T23:01:45.177Z,2.80
2022-09-01T23:04:15.098Z,3.15
2022-09-01T23:06:46.706Z,2.83
2022-09-01T23:09:16.694Z,2.20
2022-09-01T23:11:45.240Z,2.55
2022-09-01T23:14:15.202Z,2.03
2022-09-01T23:16:43.758Z,2.20
2022-09-01T23:19:12.263Z,2.30
2022-09-01T23:21:40.712Z,1.90
2022-09-01T23:24:09.260Z,1.58
2022-09-01T23:26:37.482Z,2.30
2022-09-01T23:29:07.353Z,1.73
2022-09-01T23:31:39.530Z,2.03
2022-09-01T23:34:09.483Z,2.20
2022-09-01T23:36:38.168Z,1.67
2022-09-01T23:39:07.312Z,2.05
2022-09-01T23:41:37.301Z,2.28
2022-09-01T23:44:09.618Z,2.10
2022-09-01T23:46:42.941Z,2.40
2022-09-01T23:49:12.464Z,2.67
2022-09-01T23:51:40.754Z,2.30
2022-09-01T23:54:08.847Z,1.50
2022-09-01T23:56:39.313Z,1.83
2022-09-01T23:59:08.652Z,1.92
